sensor_id;sensor_type;location;lat;lon;timestamp;P1;durP1;ratioP1;P2;durP2;ratioP2
4011;SDS011;2020;48.682;9.024;2022-08-01T00:00:27;2.67;;;2.47;;
4011;SDS011;2020;48.682;9.024;2022-08-01T00:02:53;2.63;;;2.40;;
4011;SDS011;2020;48.682;9.024;2022-08-01T00:05:18;2.40;;;2.30;;
4011;SDS011;2020;48.682;9.024;2022-08-01T00:07:43;2.67;;;2.43;;
4011;SDS011;2020;48.682;9.024;2022-08-01T00:10:10;2.27;;;2.17;;
4011;SDS011;2020;48.682;9.024;2022-08-01T00:12:37;2.80;;;2.60;;
4011;SDS011;2020;48.682;9.024;2022-08-01T00:15:03;2.20;;;2.20;;
4011;SDS011;2020;48.682;9.024;2022-08-01T00:17:30;2.67;;;2.47;;
4011;SDS011;2020;48.682;9.024;2022-08-01T00:19:56;2.63;;;2.53;;
4011;SDS011;2020;48.682;9.024;2022-08-01T00:22:21;2.00;;;1.90;;
4011;SDS011;2020;48.682;9.024;2022-08-01T00:24:46;2.93;;;2.40;;
4011;SDS011;2020;48.682;9.024;2022-08-01T00:27:11;3.00;;;1.87;;
4011;SDS011;2020;48.682;9.024;2022-08-01T00:29:37;2.40;;;2.20;;
4011;SDS011;2020;48.682;9.024;2022-08-01T00:32:02;2.93;;;2.73;;
4011;SDS011;2020;48.682;9.024;2022-08-01T00:34:27;2.33;;;2.23;;
4011;SDS011;2020;48.682;9.024;2022-08-01T00:36:53;2.47;;;2.30;;
4011;SDS011;2020;48.682;9.024;2022-08-01T00:39:18;2.90;;;2.33;;
4011;SDS011;2020;48.682;9.024;2022-08-01T00:41:43;2.70;;;2.60;;
4011;SDS011;2020;48.682;9.024;2022-08-01T00:44:08;2.53;;;2.50;;
4011;SDS011;2020;48.682;9.024;2022-08-01T00:46:34;2.67;;;2.57;;
4011;SDS011;2020;48.682;9.024;2022-08-01T00:48:59;2.47;;;2.40;;
4011;SDS011;2020;48.682;9.024;2022-08-01T00:51:26;2.70;;;2.50;;
4011;SDS011;2020;48.682;9.024;2022-08-01T00:53:52;2.47;;;2.37;;
4011;SDS011;2020;48.682;9.024;2022-08-01T00:56:21;2.23;;;2.23;;
4011;SDS011;2020;48.682;9.024;2022-08-01T00:58:49;1.70;;;1.70;;
4011;SDS011;2020;48.682;9.024;2022-08-01T01:01:15;2.00;;;1.90;;
4011;SDS011;2020;48.682;9.024;2022-08-01T01:03:40;2.40;;;2.30;;
4011;SDS011;2020;48.682;9.024;2022-08-01T01:09:10;4.87;;;2.27;;
4011;SDS011;2020;48.682;9.024;2022-08-01T01:11:55;2.57;;;2.47;;
4011;SDS011;2020;48.682;9.024;2022-08-01T01:17:27;2.80;;;2.70;;
4011;SDS011;2020;48.682;9.024;2022-08-01T01:19:57;2.40;;;2.40;;
4011;SDS011;2020;48.682;9.024;2022-08-01T01:25:04;2.40;;;2.30;;
4011;SDS011;2020;48.682;9.024;2022-08-01T01:30:22;3.20;;;3.00;;
4011;SDS011;2020;48.682;9.024;2022-08-01T01:32:51;2.60;;;2.40;;
4011;SDS011;2020;48.682;9.024;2022-08-01T01:35:22;2.87;;;2.77;;
4011;SDS011;2020;48.682;9.024;2022-08-01T01:37:51;3.60;;;2.30;;
4011;SDS011;2020;48.682;9.024;2022-08-01T01:40:22;2.50;;;2.40;;
4011;SDS011;2020;48.682;9.024;2022-08-01T01:42:50;2.63;;;2.53;;
4011;SDS011;2020;48.682;9.024;2022-08-01T01:45:16;3.10;;;3.00;;
4011;SDS011;2020;48.682;9.024;2022-08-01T01:47:43;2.80;;;2.70;;
4011;SDS011;2020;48.682;9.024;2022-08-01T01:50:10;2.43;;;2.43;;
4011;SDS011;2020;48.682;9.024;2022-08-01T01:52:37;3.07;;;2.97;;
4011;SDS011;2020;48.682;9.024;2022-08-01T01:55:06;3.10;;;3.00;;
4011;SDS011;2020;48.682;9.024;2022-08-01T01:57:33;3.00;;;2.90;;
4011;SDS011;2020;48.682;9.024;2022-08-01T02:00:02;2.67;;;2.57;;
4011;SDS011;2020;48.682;9.024;2022-08-01T02:02:28;3.00;;;2.90;;
4011;SDS011;2020;48.682;9.024;2022-08-01T02:04:55;3.10;;;2.90;;
4011;SDS011;2020;48.682;9.024;2022-08-01T02:07:23;2.73;;;2.63;;
4011;SDS011;2020;48.682;9.024;2022-08-01T02:09:51;2.73;;;2.63;;
4011;SDS011;2020;48.682;9.024;2022-08-01T02:12:17;2.93;;;2.67;;
4011;SDS011;2020;48.682;9.024;2022-08-01T02:14:46;2.93;;;2.83;;
4011;SDS011;2020;48.682;9.024;2022-08-01T02:17:15;2.90;;;2.70;;
4011;SDS011;2020;48.682;9.024;2022-08-01T02:19:42;3.00;;;2.60;;
4011;SDS011;2020;48.682;9.024;2022-08-01T02:22:08;3.57;;;3.47;;
4011;SDS011;2020;48.682;9.024;2022-08-01T02:24:49;3.17;;;3.07;;
4011;SDS011;2020;48.682;9.024;2022-08-01T02:27:26;4.10;;;3.80;;
4011;SDS011;2020;48.682;9.024;2022-08-01T02:30:00;2.50;;;2.40;;
4011;SDS011;2020;48.682;9.024;2022-08-01T02:32:31;2.40;;;2.30;;
4011;SDS011;2020;48.682;9.024;2022-08-01T02:35:02;2.67;;;2.57;;
4011;SDS011;2020;48.682;9.024;2022-08-01T02:37:28;2.90;;;2.80;;
4011;SDS011;2020;48.682;9.024;2022-08-01T02:39:58;3.00;;;2.90;;
4011;SDS011;2020;48.682;9.024;2022-08-01T02:42:25;3.20;;;3.10;;
4011;SDS011;2020;48.682;9.024;2022-08-01T02:44:52;3.23;;;3.03;;
4011;SDS011;2020;48.682;9.024;2022-08-01T02:47:19;3.80;;;3.50;;
4011;SDS011;2020;48.682;9.024;2022-08-01T02:49:48;2.80;;;2.70;;
4011;SDS011;2020;48.682;9.024;2022-08-01T02:52:17;2.73;;;2.53;;
4011;SDS011;2020;48.682;9.024;2022-08-01T02:54:45;2.80;;;2.70;;
4011;SDS011;2020;48.682;9.024;2022-08-01T02:57:12;3.83;;;3.10;;
4011;SDS011;2020;48.682;9.024;2022-08-01T02:59:38;2.83;;;2.77;;
4011;SDS011;2020;48.682;9.024;2022-08-01T03:02:05;4.20;;;2.93;;
4011;SDS011;2020;48.682;9.024;2022-08-01T03:04:33;2.83;;;2.73;;
4011;SDS011;2020;48.682;9.024;2022-08-01T03:07:00;2.50;;;2.50;;
4011;SDS011;2020;48.682;9.024;2022-08-01T03:09:29;3.43;;;3.23;;
4011;SDS011;2020;48.682;9.024;2022-08-01T03:11:58;2.80;;;2.70;;
4011;SDS011;2020;48.682;9.024;2022-08-01T03:14:26;3.53;;;3.43;;
4011;SDS011;2020;48.682;9.024;2022-08-01T03:16:53;2.30;;;2.30;;
4011;SDS011;2020;48.682;9.024;2022-08-01T03:19:20;2.67;;;2.57;;
4011;SDS011;2020;48.682;9.024;2022-08-01T03:21:49;2.30;;;2.20;;
4011;SDS011;2020;48.682;9.024;2022-08-01T03:24:16;2.80;;;2.60;;
4011;SDS011;2020;48.682;9.024;2022-08-01T03:26:44;2.77;;;2.67;;
4011;SDS011;2020;48.682;9.024;2022-08-01T03:29:12;2.60;;;2.60;;
4011;SDS011;2020;48.682;9.024;2022-08-01T03:31:43;3.27;;;3.17;;
4011;SDS011;2020;48.682;9.024;2022-08-01T03:34:10;3.20;;;3.00;;
4011;SDS011;2020;48.682;9.024;2022-08-01T03:36:39;2.97;;;2.77;;
4011;SDS011;2020;48.682;9.024;2022-08-01T03:39:15;2.53;;;2.23;;
4011;SDS011;2020;48.682;9.024;2022-08-01T03:41:43;2.60;;;2.50;;
4011;SDS011;2020;48.682;9.024;2022-08-01T03:44:14;2.70;;;2.50;;
4011;SDS011;2020;48.682;9.024;2022-08-01T03:46:45;3.17;;;3.00;;
4011;SDS011;2020;48.682;9.024;2022-08-01T03:49:14;3.00;;;2.90;;
4011;SDS011;2020;48.682;9.024;2022-08-01T03:51:48;2.73;;;2.63;;
4011;SDS011;2020;48.682;9.024;2022-08-01T03:54:24;2.63;;;2.57;;
4011;SDS011;2020;48.682;9.024;2022-08-01T03:56:51;3.57;;;3.47;;
4011;SDS011;2020;48.682;9.024;2022-08-01T03:59:17;3.00;;;2.90;;
4011;SDS011;2020;48.682;9.024;2022-08-01T04:01:44;3.00;;;2.80;;
4011;SDS011;2020;48.682;9.024;2022-08-01T04:04:10;3.00;;;2.90;;
4011;SDS011;2020;48.682;9.024;2022-08-01T04:06:37;2.60;;;2.50;;
4011;SDS011;2020;48.682;9.024;2022-08-01T04:09:03;3.30;;;2.93;;
4011;SDS011;2020;48.682;9.024;2022-08-01T04:11:29;3.20;;;3.10;;
4011;SDS011;2020;48.682;9.024;2022-08-01T04:13:54;3.27;;;3.17;;
4011;SDS011;2020;48.682;9.024;2022-08-01T04:16:20;2.70;;;2.70;;
4011;SDS011;2020;48.682;9.024;2022-08-01T04:18:46;3.10;;;3.00;;
4011;SDS011;2020;48.682;9.024;2022-08-01T04:21:12;3.30;;;3.10;;
4011;SDS011;2020;48.682;9.024;2022-08-01T04:23:39;2.73;;;2.63;;
4011;SDS011;2020;48.682;9.024;2022-08-01T04:26:08;3.63;;;3.53;;
4011;SDS011;2020;48.682;9.024;2022-08-01T04:28:35;3.00;;;2.90;;
4011;SDS011;2020;48.682;9.024;2022-08-01T04:31:02;3.63;;;3.00;;
4011;SDS011;2020;48.682;9.024;2022-08-01T04:33:34;5.30;;;4.90;;
4011;SDS011;2020;48.682;9.024;2022-08-01T04:36:02;4.30;;;4.00;;
4011;SDS011;2020;48.682;9.024;2022-08-01T04:38:29;3.70;;;3.60;;
4011;SDS011;2020;48.682;9.024;2022-08-01T04:40:56;4.40;;;3.20;;
4011;SDS011;2020;48.682;9.024;2022-08-01T04:43:22;3.03;;;2.83;;
4011;SDS011;2020;48.682;9.024;2022-08-01T04:45:48;3.37;;;3.27;;
4011;SDS011;2020;48.682;9.024;2022-08-01T04:48:16;3.43;;;3.17;;
4011;SDS011;2020;48.682;9.024;2022-08-01T04:50:42;2.77;;;2.67;;
4011;SDS011;2020;48.682;9.024;2022-08-01T04:53:14;3.10;;;2.90;;
4011;SDS011;2020;48.682;9.024;2022-08-01T04:55:42;3.13;;;3.03;;
4011;SDS011;2020;48.682;9.024;2022-08-01T04:58:11;3.10;;;3.00;;
4011;SDS011;2020;48.682;9.024;2022-08-01T05:00:36;5.20;;;3.70;;
4011;SDS011;2020;48.682;9.024;2022-08-01T05:03:02;3.03;;;2.93;;
4011;SDS011;2020;48.682;9.024;2022-08-01T05:05:27;3.07;;;2.97;;
4011;SDS011;2020;48.682;9.024;2022-08-01T05:07:53;3.40;;;3.20;;
4011;SDS011;2020;48.682;9.024;2022-08-01T05:10:18;4.63;;;3.37;;
4011;SDS011;2020;48.682;9.024;2022-08-01T05:12:43;3.53;;;3.23;;
4011;SDS011;2020;48.682;9.024;2022-08-01T05:15:08;3.23;;;3.07;;
4011;SDS011;2020;48.682;9.024;2022-08-01T05:17:34;3.23;;;3.13;;
4011;SDS011;2020;48.682;9.024;2022-08-01T05:19:59;3.23;;;3.13;;
4011;SDS011;2020;48.682;9.024;2022-08-01T05:22:24;3.37;;;3.27;;
4011;SDS011;2020;48.682;9.024;2022-08-01T05:24:50;2.77;;;2.67;;
4011;SDS011;2020;48.682;9.024;2022-08-01T05:27:16;3.73;;;3.63;;
4011;SDS011;2020;48.682;9.024;2022-08-01T05:29:41;4.90;;;2.80;;
4011;SDS011;2020;48.682;9.024;2022-08-01T05:32:07;3.10;;;3.00;;
4011;SDS011;2020;48.682;9.024;2022-08-01T05:34:32;2.60;;;2.50;;
4011;SDS011;2020;48.682;9.024;2022-08-01T05:36:58;2.80;;;2.70;;
4011;SDS011;2020;48.682;9.024;2022-08-01T05:39:23;2.80;;;2.80;;
4011;SDS011;2020;48.682;9.024;2022-08-01T05:41:48;2.73;;;2.63;;
4011;SDS011;2020;48.682;9.024;2022-08-01T05:44:13;3.33;;;3.13;;
4011;SDS011;2020;48.682;9.024;2022-08-01T05:46:39;2.67;;;2.57;;
4011;SDS011;2020;48.682;9.024;2022-08-01T05:49:05;3.00;;;2.90;;
4011;SDS011;2020;48.682;9.024;2022-08-01T05:51:31;3.07;;;2.90;;
4011;SDS011;2020;48.682;9.024;2022-08-01T05:53:56;2.70;;;2.60;;
4011;SDS011;2020;48.682;9.024;2022-08-01T05:56:22;3.00;;;2.90;;
4011;SDS011;2020;48.682;9.024;2022-08-01T05:58:48;2.53;;;2.43;;
4011;SDS011;2020;48.682;9.024;2022-08-01T06:01:17;5.53;;;3.27;;
4011;SDS011;2020;48.682;9.024;2022-08-01T06:03:43;5.30;;;2.37;;
4011;SDS011;2020;48.682;9.024;2022-08-01T06:06:08;2.70;;;2.50;;
4011;SDS011;2020;48.682;9.024;2022-08-01T06:08:34;2.93;;;2.57;;
4011;SDS011;2020;48.682;9.024;2022-08-01T06:10:59;2.30;;;2.20;;
4011;SDS011;2020;48.682;9.024;2022-08-01T06:13:24;2.80;;;2.60;;
4011;SDS011;2020;48.682;9.024;2022-08-01T06:15:50;2.40;;;2.33;;
4011;SDS011;2020;48.682;9.024;2022-08-01T06:18:15;2.27;;;2.23;;
4011;SDS011;2020;48.682;9.024;2022-08-01T06:20:41;2.43;;;2.30;;
4011;SDS011;2020;48.682;9.024;2022-08-01T06:23:07;2.40;;;2.40;;
4011;SDS011;2020;48.682;9.024;2022-08-01T06:25:33;2.10;;;2.10;;
4011;SDS011;2020;48.682;9.024;2022-08-01T06:27:58;2.47;;;2.37;;
4011;SDS011;2020;48.682;9.024;2022-08-01T06:30:23;2.70;;;2.40;;
4011;SDS011;2020;48.682;9.024;2022-08-01T06:32:49;2.13;;;2.10;;
4011;SDS011;2020;48.682;9.024;2022-08-01T06:35:14;2.47;;;2.27;;
4011;SDS011;2020;48.682;9.024;2022-08-01T06:37:40;2.73;;;2.53;;
4011;SDS011;2020;48.682;9.024;2022-08-01T06:40:07;1.80;;;1.70;;
4011;SDS011;2020;48.682;9.024;2022-08-01T06:42:34;1.97;;;1.97;;
4011;SDS011;2020;48.682;9.024;2022-08-01T06:45:03;2.77;;;2.13;;
4011;SDS011;2020;48.682;9.024;2022-08-01T06:47:32;1.70;;;1.70;;
4011;SDS011;2020;48.682;9.024;2022-08-01T06:49:57;2.10;;;2.00;;
4011;SDS011;2020;48.682;9.024;2022-08-01T06:52:22;1.80;;;1.80;;
4011;SDS011;2020;48.682;9.024;2022-08-01T06:54:48;1.73;;;1.73;;
4011;SDS011;2020;48.682;9.024;2022-08-01T06:57:13;1.70;;;1.63;;
4011;SDS011;2020;48.682;9.024;2022-08-01T06:59:38;1.63;;;1.60;;
4011;SDS011;2020;48.682;9.024;2022-08-01T07:02:04;1.57;;;1.40;;
4011;SDS011;2020;48.682;9.024;2022-08-01T07:04:29;1.53;;;1.53;;
4011;SDS011;2020;48.682;9.024;2022-08-01T07:06:55;1.40;;;1.40;;
4011;SDS011;2020;48.682;9.024;2022-08-01T07:09:21;1.50;;;1.40;;
4011;SDS011;2020;48.682;9.024;2022-08-01T07:11:46;1.57;;;1.57;;
4011;SDS011;2020;48.682;9.024;2022-08-01T07:14:11;1.60;;;1.60;;
4011;SDS011;2020;48.682;9.024;2022-08-01T07:16:37;2.23;;;2.13;;
4011;SDS011;2020;48.682;9.024;2022-08-01T07:19:02;1.90;;;1.80;;
4011;SDS011;2020;48.682;9.024;2022-08-01T07:21:27;1.97;;;1.97;;
4011;SDS011;2020;48.682;9.024;2022-08-01T07:23:53;1.63;;;1.63;;
4011;SDS011;2020;48.682;9.024;2022-08-01T07:26:18;2.50;;;1.50;;
4011;SDS011;2020;48.682;9.024;2022-08-01T07:28:43;3.33;;;1.83;;
4011;SDS011;2020;48.682;9.024;2022-08-01T07:31:09;1.70;;;1.60;;
4011;SDS011;2020;48.682;9.024;2022-08-01T07:33:34;1.80;;;1.80;;
4011;SDS011;2020;48.682;9.024;2022-08-01T07:35:59;1.40;;;1.40;;
4011;SDS011;2020;48.682;9.024;2022-08-01T07:38:24;3.23;;;1.70;;
4011;SDS011;2020;48.682;9.024;2022-08-01T07:40:50;2.30;;;1.93;;
4011;SDS011;2020;48.682;9.024;2022-08-01T07:43:15;2.80;;;2.60;;
4011;SDS011;2020;48.682;9.024;2022-08-01T07:45:41;1.77;;;1.67;;
4011;SDS011;2020;48.682;9.024;2022-08-01T07:48:06;1.93;;;1.93;;
4011;SDS011;2020;48.682;9.024;2022-08-01T07:50:32;1.63;;;1.63;;
4011;SDS011;2020;48.682;9.024;2022-08-01T07:52:58;2.33;;;2.23;;
4011;SDS011;2020;48.682;9.024;2022-08-01T07:55:24;2.07;;;1.97;;
4011;SDS011;2020;48.682;9.024;2022-08-01T07:57:49;2.23;;;2.13;;
4011;SDS011;2020;48.682;9.024;2022-08-01T08:00:16;1.97;;;1.97;;
4011;SDS011;2020;48.682;9.024;2022-08-01T08:02:41;2.53;;;2.07;;
4011;SDS011;2020;48.682;9.024;2022-08-01T08:05:07;2.00;;;2.00;;
4011;SDS011;2020;48.682;9.024;2022-08-01T08:07:32;2.30;;;2.30;;
4011;SDS011;2020;48.682;9.024;2022-08-01T08:09:58;2.10;;;2.00;;
4011;SDS011;2020;48.682;9.024;2022-08-01T08:12:24;2.13;;;2.13;;
4011;SDS011;2020;48.682;9.024;2022-08-01T08:14:49;2.03;;;1.77;;
4011;SDS011;2020;48.682;9.024;2022-08-01T08:17:15;2.63;;;2.43;;
4011;SDS011;2020;48.682;9.024;2022-08-01T08:19:40;2.33;;;2.13;;
4011;SDS011;2020;48.682;9.024;2022-08-01T08:22:06;2.43;;;2.30;;
4011;SDS011;2020;48.682;9.024;2022-08-01T08:24:32;2.67;;;2.57;;
4011;SDS011;2020;48.682;9.024;2022-08-01T08:26:58;2.23;;;2.23;;
4011;SDS011;2020;48.682;9.024;2022-08-01T08:29:25;3.90;;;3.07;;
4011;SDS011;2020;48.682;9.024;2022-08-01T08:31:54;2.73;;;2.63;;
4011;SDS011;2020;48.682;9.024;2022-08-01T08:34:20;2.53;;;2.43;;
4011;SDS011;2020;48.682;9.024;2022-08-01T08:36:45;2.93;;;2.83;;
4011;SDS011;2020;48.682;9.024;2022-08-01T08:39:11;3.00;;;2.90;;
4011;SDS011;2020;48.682;9.024;2022-08-01T08:41:36;2.83;;;2.67;;
4011;SDS011;2020;48.682;9.024;2022-08-01T08:44:02;2.50;;;2.40;;
4011;SDS011;2020;48.682;9.024;2022-08-01T08:46:28;3.13;;;3.03;;
4011;SDS011;2020;48.682;9.024;2022-08-01T08:48:55;3.40;;;3.20;;
4011;SDS011;2020;48.682;9.024;2022-08-01T08:51:20;2.97;;;2.87;;
4011;SDS011;2020;48.682;9.024;2022-08-01T08:53:48;2.93;;;2.83;;
4011;SDS011;2020;48.682;9.024;2022-08-01T08:56:17;3.30;;;3.10;;
4011;SDS011;2020;48.682;9.024;2022-08-01T08:58:44;3.10;;;3.00;;
4011;SDS011;2020;48.682;9.024;2022-08-01T09:01:10;3.17;;;3.17;;
4011;SDS011;2020;48.682;9.024;2022-08-01T09:03:37;2.80;;;2.70;;
4011;SDS011;2020;48.682;9.024;2022-08-01T09:06:03;2.87;;;2.77;;
4011;SDS011;2020;48.682;9.024;2022-08-01T09:08:28;3.30;;;3.20;;
4011;SDS011;2020;48.682;9.024;2022-08-01T09:10:54;2.43;;;2.33;;
4011;SDS011;2020;48.682;9.024;2022-08-01T09:13:20;3.00;;;2.90;;
4011;SDS011;2020;48.682;9.024;2022-08-01T09:15:53;2.83;;;2.73;;
4011;SDS011;2020;48.682;9.024;2022-08-01T09:18:26;3.03;;;2.97;;
4011;SDS011;2020;48.682;9.024;2022-08-01T09:21:18;3.43;;;3.33;;
4011;SDS011;2020;48.682;9.024;2022-08-01T09:23:47;3.40;;;3.30;;
4011;SDS011;2020;48.682;9.024;2022-08-01T09:26:15;3.57;;;3.20;;
4011;SDS011;2020;48.682;9.024;2022-08-01T09:28:44;3.97;;;3.77;;
4011;SDS011;2020;48.682;9.024;2022-08-01T09:31:11;2.87;;;2.77;;
4011;SDS011;2020;48.682;9.024;2022-08-01T09:33:46;3.27;;;3.10;;
4011;SDS011;2020;48.682;9.024;2022-08-01T09:36:22;3.63;;;3.53;;
4011;SDS011;2020;48.682;9.024;2022-08-01T09:38:49;3.37;;;3.17;;
4011;SDS011;2020;48.682;9.024;2022-08-01T09:41:15;3.03;;;2.80;;
4011;SDS011;2020;48.682;9.024;2022-08-01T09:43:47;3.07;;;2.97;;
4011;SDS011;2020;48.682;9.024;2022-08-01T09:46:14;3.73;;;3.43;;
4011;SDS011;2020;48.682;9.024;2022-08-01T09:51:51;4.50;;;4.30;;
4011;SDS011;2020;48.682;9.024;2022-08-01T09:54:17;4.50;;;4.23;;
4011;SDS011;2020;48.682;9.024;2022-08-01T09:56:53;4.47;;;4.00;;
4011;SDS011;2020;48.682;9.024;2022-08-01T09:59:18;5.50;;;5.20;;
4011;SDS011;2020;48.682;9.024;2022-08-01T10:01:48;5.37;;;5.17;;
4011;SDS011;2020;48.682;9.024;2022-08-01T10:04:15;5.53;;;5.33;;
4011;SDS011;2020;48.682;9.024;2022-08-01T10:06:42;6.13;;;5.63;;
4011;SDS011;2020;48.682;9.024;2022-08-01T10:09:10;6.37;;;6.07;;
4011;SDS011;2020;48.682;9.024;2022-08-01T10:11:37;5.77;;;5.40;;
4011;SDS011;2020;48.682;9.024;2022-08-01T10:14:04;4.83;;;4.60;;
4011;SDS011;2020;48.682;9.024;2022-08-01T10:16:30;4.80;;;4.60;;
4011;SDS011;2020;48.682;9.024;2022-08-01T10:18:58;5.00;;;4.60;;
4011;SDS011;2020;48.682;9.024;2022-08-01T10:21:25;3.90;;;3.70;;
4011;SDS011;2020;48.682;9.024;2022-08-01T10:23:52;3.60;;;3.50;;
4011;SDS011;2020;48.682;9.024;2022-08-01T10:26:20;3.40;;;3.30;;
4011;SDS011;2020;48.682;9.024;2022-08-01T10:28:46;3.37;;;3.27;;
4011;SDS011;2020;48.682;9.024;2022-08-01T10:31:13;3.93;;;3.83;;
4011;SDS011;2020;48.682;9.024;2022-08-01T10:33:38;3.50;;;3.40;;
4011;SDS011;2020;48.682;9.024;2022-08-01T10:36:06;3.47;;;3.37;;
4011;SDS011;2020;48.682;9.024;2022-08-01T10:38:31;3.30;;;3.20;;
4011;SDS011;2020;48.682;9.024;2022-08-01T10:40:57;3.43;;;3.20;;
4011;SDS011;2020;48.682;9.024;2022-08-01T10:43:24;3.40;;;3.30;;
4011;SDS011;2020;48.682;9.024;2022-08-01T10:45:50;3.80;;;3.70;;
4011;SDS011;2020;48.682;9.024;2022-08-01T10:48:18;2.90;;;2.80;;
4011;SDS011;2020;48.682;9.024;2022-08-01T10:50:52;5.37;;;2.97;;
4011;SDS011;2020;48.682;9.024;2022-08-01T10:53:20;3.47;;;3.27;;
4011;SDS011;2020;48.682;9.024;2022-08-01T10:58:28;3.20;;;3.20;;
4011;SDS011;2020;48.682;9.024;2022-08-01T11:01:17;3.63;;;3.47;;
4011;SDS011;2020;48.682;9.024;2022-08-01T11:03:57;2.90;;;2.80;;
4011;SDS011;2020;48.682;9.024;2022-08-01T11:06:28;3.13;;;3.03;;
4011;SDS011;2020;48.682;9.024;2022-08-01T11:08:57;2.33;;;2.13;;
4011;SDS011;2020;48.682;9.024;2022-08-01T11:11:23;3.00;;;2.90;;
4011;SDS011;2020;48.682;9.024;2022-08-01T11:14:04;3.00;;;2.90;;
4011;SDS011;2020;48.682;9.024;2022-08-01T11:16:38;2.80;;;2.80;;
4011;SDS011;2020;48.682;9.024;2022-08-01T11:19:04;3.30;;;3.20;;
4011;SDS011;2020;48.682;9.024;2022-08-01T11:27:18;2.53;;;2.33;;
4011;SDS011;2020;48.682;9.024;2022-08-01T11:35:21;3.17;;;2.97;;
4011;SDS011;2020;48.682;9.024;2022-08-01T11:37:52;3.20;;;3.10;;
4011;SDS011;2020;48.682;9.024;2022-08-01T11:40:22;2.93;;;2.83;;
4011;SDS011;2020;48.682;9.024;2022-08-01T11:42:50;2.87;;;2.67;;
4011;SDS011;2020;48.682;9.024;2022-08-01T11:45:46;2.50;;;2.40;;
4011;SDS011;2020;48.682;9.024;2022-08-01T11:48:25;2.20;;;2.10;;
4011;SDS011;2020;48.682;9.024;2022-08-01T11:50:53;2.53;;;2.43;;
4011;SDS011;2020;48.682;9.024;2022-08-01T11:53:19;2.70;;;2.60;;
4011;SDS011;2020;48.682;9.024;2022-08-01T11:55:46;2.30;;;2.30;;
4011;SDS011;2020;48.682;9.024;2022-08-01T11:58:15;2.17;;;2.17;;
4011;SDS011;2020;48.682;9.024;2022-08-01T12:00:52;2.70;;;2.60;;
4011;SDS011;2020;48.682;9.024;2022-08-01T12:03:28;2.33;;;2.33;;
4011;SDS011;2020;48.682;9.024;2022-08-01T12:05:56;2.70;;;2.60;;
4011;SDS011;2020;48.682;9.024;2022-08-01T12:08:29;2.47;;;2.37;;
4011;SDS011;2020;48.682;9.024;2022-08-01T12:11:01;2.50;;;2.43;;
4011;SDS011;2020;48.682;9.024;2022-08-01T12:13:38;2.10;;;2.10;;
4011;SDS011;2020;48.682;9.024;2022-08-01T12:16:08;2.03;;;2.00;;
4011;SDS011;2020;48.682;9.024;2022-08-01T12:18:38;2.00;;;1.90;;
4011;SDS011;2020;48.682;9.024;2022-08-01T12:21:05;2.13;;;2.13;;
4011;SDS011;2020;48.682;9.024;2022-08-01T12:23:30;2.10;;;2.10;;
4011;SDS011;2020;48.682;9.024;2022-08-01T12:25:55;2.50;;;2.40;;
4011;SDS011;2020;48.682;9.024;2022-08-01T12:28:21;3.10;;;3.00;;
4011;SDS011;2020;48.682;9.024;2022-08-01T12:30:47;2.63;;;2.53;;
4011;SDS011;2020;48.682;9.024;2022-08-01T12:33:16;2.03;;;2.03;;
4011;SDS011;2020;48.682;9.024;2022-08-01T12:35:43;2.23;;;2.03;;
4011;SDS011;2020;48.682;9.024;2022-08-01T12:38:15;2.50;;;2.10;;
4011;SDS011;2020;48.682;9.024;2022-08-01T12:40:44;2.50;;;2.10;;
4011;SDS011;2020;48.682;9.024;2022-08-01T12:43:15;2.00;;;2.00;;
4011;SDS011;2020;48.682;9.024;2022-08-01T12:45:42;2.10;;;2.07;;
4011;SDS011;2020;48.682;9.024;2022-08-01T12:48:09;1.87;;;1.87;;
4011;SDS011;2020;48.682;9.024;2022-08-01T12:50:37;2.07;;;1.97;;
4011;SDS011;2020;48.682;9.024;2022-08-01T12:53:04;2.37;;;2.27;;
4011;SDS011;2020;48.682;9.024;2022-08-01T12:55:30;1.90;;;1.80;;
4011;SDS011;2020;48.682;9.024;2022-08-01T12:58:08;1.93;;;1.77;;
4011;SDS011;2020;48.682;9.024;2022-08-01T13:00:37;1.70;;;1.70;;
4011;SDS011;2020;48.682;9.024;2022-08-01T13:03:09;1.93;;;1.93;;
4011;SDS011;2020;48.682;9.024;2022-08-01T13:08:14;1.97;;;1.87;;
4011;SDS011;2020;48.682;9.024;2022-08-01T13:10:40;2.63;;;1.90;;
4011;SDS011;2020;48.682;9.024;2022-08-01T13:13:06;3.03;;;1.83;;
4011;SDS011;2020;48.682;9.024;2022-08-01T13:15:34;2.10;;;2.00;;
4011;SDS011;2020;48.682;9.024;2022-08-01T13:18:02;2.23;;;2.13;;
4011;SDS011;2020;48.682;9.024;2022-08-01T13:21:12;2.17;;;2.17;;
4011;SDS011;2020;48.682;9.024;2022-08-01T13:23:59;2.10;;;2.10;;
4011;SDS011;2020;48.682;9.024;2022-08-01T13:26:38;2.63;;;2.53;;
4011;SDS011;2020;48.682;9.024;2022-08-01T13:29:06;3.33;;;2.43;;
4011;SDS011;2020;48.682;9.024;2022-08-01T13:31:33;1.90;;;1.80;;
4011;SDS011;2020;48.682;9.024;2022-08-01T13:33:59;2.13;;;2.03;;
4011;SDS011;2020;48.682;9.024;2022-08-01T13:36:24;2.87;;;2.77;;
4011;SDS011;2020;48.682;9.024;2022-08-01T13:38:52;2.47;;;2.27;;
4011;SDS011;2020;48.682;9.024;2022-08-01T13:41:36;1.67;;;1.67;;
4011;SDS011;2020;48.682;9.024;2022-08-01T13:44:01;2.67;;;2.33;;
4011;SDS011;2020;48.682;9.024;2022-08-01T13:46:26;2.13;;;2.00;;
4011;SDS011;2020;48.682;9.024;2022-08-01T13:48:51;2.30;;;2.20;;
4011;SDS011;2020;48.682;9.024;2022-08-01T13:51:17;2.50;;;2.40;;
4011;SDS011;2020;48.682;9.024;2022-08-01T13:53:42;2.87;;;2.10;;
4011;SDS011;2020;48.682;9.024;2022-08-01T13:56:07;2.33;;;2.23;;
4011;SDS011;2020;48.682;9.024;2022-08-01T13:58:32;2.20;;;2.10;;
4011;SDS011;2020;48.682;9.024;2022-08-01T14:00:58;2.97;;;2.80;;
4011;SDS011;2020;48.682;9.024;2022-08-01T14:03:23;2.57;;;2.47;;
4011;SDS011;2020;48.682;9.024;2022-08-01T14:05:49;2.53;;;2.27;;
4011;SDS011;2020;48.682;9.024;2022-08-01T14:08:14;2.10;;;2.00;;
4011;SDS011;2020;48.682;9.024;2022-08-01T14:10:39;2.30;;;2.20;;
4011;SDS011;2020;48.682;9.024;2022-08-01T14:13:05;2.07;;;1.97;;
4011;SDS011;2020;48.682;9.024;2022-08-01T14:15:30;2.00;;;2.00;;
4011;SDS011;2020;48.682;9.024;2022-08-01T14:17:56;3.40;;;1.80;;
4011;SDS011;2020;48.682;9.024;2022-08-01T14:20:22;1.87;;;1.87;;
4011;SDS011;2020;48.682;9.024;2022-08-01T14:22:47;2.07;;;1.97;;
4011;SDS011;2020;48.682;9.024;2022-08-01T14:25:14;3.00;;;2.87;;
4011;SDS011;2020;48.682;9.024;2022-08-01T14:27:39;2.90;;;2.73;;
4011;SDS011;2020;48.682;9.024;2022-08-01T14:30:06;2.40;;;2.30;;
4011;SDS011;2020;48.682;9.024;2022-08-01T14:32:32;2.33;;;2.30;;
4011;SDS011;2020;48.682;9.024;2022-08-01T14:34:58;3.10;;;2.40;;
4011;SDS011;2020;48.682;9.024;2022-08-01T14:37:24;2.80;;;2.70;;
4011;SDS011;2020;48.682;9.024;2022-08-01T14:39:49;2.23;;;2.23;;
4011;SDS011;2020;48.682;9.024;2022-08-01T14:42:14;2.17;;;2.07;;
4011;SDS011;2020;48.682;9.024;2022-08-01T14:44:40;1.80;;;1.80;;
4011;SDS011;2020;48.682;9.024;2022-08-01T14:47:05;6.00;;;2.73;;
4011;SDS011;2020;48.682;9.024;2022-08-01T14:49:30;2.00;;;2.00;;
4011;SDS011;2020;48.682;9.024;2022-08-01T14:51:56;2.00;;;1.90;;
4011;SDS011;2020;48.682;9.024;2022-08-01T14:54:21;2.57;;;2.37;;
4011;SDS011;2020;48.682;9.024;2022-08-01T14:56:46;2.40;;;2.20;;
4011;SDS011;2020;48.682;9.024;2022-08-01T14:59:11;2.03;;;1.93;;
4011;SDS011;2020;48.682;9.024;2022-08-01T15:01:37;2.00;;;2.00;;
4011;SDS011;2020;48.682;9.024;2022-08-01T15:04:02;3.03;;;2.23;;
4011;SDS011;2020;48.682;9.024;2022-08-01T15:06:28;2.73;;;2.30;;
4011;SDS011;2020;48.682;9.024;2022-08-01T15:08:53;2.50;;;2.27;;
4011;SDS011;2020;48.682;9.024;2022-08-01T15:11:18;2.13;;;2.13;;
4011;SDS011;2020;48.682;9.024;2022-08-01T15:13:43;1.97;;;1.83;;
4011;SDS011;2020;48.682;9.024;2022-08-01T15:16:09;2.17;;;2.03;;
4011;SDS011;2020;48.682;9.024;2022-08-01T15:18:35;3.00;;;1.87;;
4011;SDS011;2020;48.682;9.024;2022-08-01T15:21:00;2.30;;;2.20;;
4011;SDS011;2020;48.682;9.024;2022-08-01T15:23:25;2.30;;;2.30;;
4011;SDS011;2020;48.682;9.024;2022-08-01T15:25:50;2.40;;;2.30;;
4011;SDS011;2020;48.682;9.024;2022-08-01T15:28:16;2.20;;;2.10;;
4011;SDS011;2020;48.682;9.024;2022-08-01T15:30:41;2.07;;;1.90;;
4011;SDS011;2020;48.682;9.024;2022-08-01T15:33:07;2.17;;;2.17;;
4011;SDS011;2020;48.682;9.024;2022-08-01T15:35:33;2.30;;;2.20;;
4011;SDS011;2020;48.682;9.024;2022-08-01T15:37:58;2.27;;;2.17;;
4011;SDS011;2020;48.682;9.024;2022-08-01T15:40:23;2.30;;;2.20;;
4011;SDS011;2020;48.682;9.024;2022-08-01T15:42:49;2.27;;;2.17;;
4011;SDS011;2020;48.682;9.024;2022-08-01T15:45:14;2.10;;;1.63;;
4011;SDS011;2020;48.682;9.024;2022-08-01T15:47:43;3.00;;;2.90;;